sensor_id;sensor_type;location;lat;lon;timestamp;temperature;humidity
45945;DHT22;31655;48.972;10.686;2023-12-29T00:01:44;5.40;99.90
45945;DHT22;31655;48.972;10.686;2023-12-29T00:04:09;5.10;99.90
45945;DHT22;31655;48.972;10.686;2023-12-29T00:06:38;5.10;99.90
45945;DHT22;31655;48.972;10.686;2023-12-29T00:09:04;5.10;99.90
45945;DHT22;31655;48.972;10.686;2023-12-29T00:11:29;5.10;99.90
45945;DHT22;31655;48.972;10.686;2023-12-29T00:13:55;5.10;99.90
45945;DHT22;31655;48.972;10.686;2023-12-29T00:16:21;5.10;99.90
45945;DHT22;31655;48.972;10.686;2023-12-29T00:18:46;7.10;99.90
45945;DHT22;31655;48.972;10.686;2023-12-29T00:21:12;5.00;99.90
45945;DHT22;31655;48.972;10.686;2023-12-29T00:23:37;5.00;99.90
45945;DHT22;31655;48.972;10.686;2023-12-29T00:26:03;5.00;99.90
45945;DHT22;31655;48.972;10.686;2023-12-29T00:28:28;5.00;99.90
45945;DHT22;31655;48.972;10.686;2023-12-29T00:30:54;5.00;99.90
45945;DHT22;31655;48.972;10.686;2023-12-29T00:33:20;5.10;99.90
45945;DHT22;31655;48.972;10.686;2023-12-29T00:35:45;5.10;99.90
45945;DHT22;31655;48.972;10.686;2023-12-29T00:38:11;5.10;99.90
45945;DHT22;31655;48.972;10.686;2023-12-29T00:40:36;5.10;99.90
45945;DHT22;31655;48.972;10.686;2023-12-29T00:43:02;5.10;99.90
45945;DHT22;31655;48.972;10.686;2023-12-29T00:45:28;5.10;99.90
45945;DHT22;31655;48.972;10.686;2023-12-29T00:47:59;5.10;99.90
45945;DHT22;31655;48.972;10.686;2023-12-29T00:50:25;5.10;99.90
45945;DHT22;31655;48.972;10.686;2023-12-29T00:52:51;5.10;99.90
45945;DHT22;31655;48.972;10.686;2023-12-29T00:55:17;5.10;99.90
45945;DHT22;31655;48.972;10.686;2023-12-29T00:57:43;5.00;99.90
45945;DHT22;31655;48.972;10.686;2023-12-29T01:00:11;5.00;99.90
45945;DHT22;31655;48.972;10.686;2023-12-29T01:02:37;5.00;99.90
45945;DHT22;31655;48.972;10.686;2023-12-29T01:05:03;4.90;99.90
45945;DHT22;31655;48.972;10.686;2023-12-29T01:07:28;4.90;99.90
45945;DHT22;31655;48.972;10.686;2023-12-29T01:09:54;4.90;99.90
45945;DHT22;31655;48.972;10.686;2023-12-29T01:12:19;4.90;99.90
45945;DHT22;31655;48.972;10.686;2023-12-29T01:14:45;4.90;99.90
45945;DHT22;31655;48.972;10.686;2023-12-29T01:17:10;4.80;99.90
45945;DHT22;31655;48.972;10.686;2023-12-29T01:19:36;4.80;99.90
45945;DHT22;31655;48.972;10.686;2023-12-29T01:22:02;6.80;99.90
45945;DHT22;31655;48.972;10.686;2023-12-29T01:24:27;4.70;99.90
45945;DHT22;31655;48.972;10.686;2023-12-29T01:26:53;4.70;99.90
45945;DHT22;31655;48.972;10.686;2023-12-29T01:29:18;4.60;99.90
45945;DHT22;31655;48.972;10.686;2023-12-29T01:31:44;4.70;99.90
45945;DHT22;31655;48.972;10.686;2023-12-29T01:34:09;4.60;99.90
45945;DHT22;31655;48.972;10.686;2023-12-29T01:36:35;4.50;99.90
45945;DHT22;31655;48.972;10.686;2023-12-29T01:39:00;4.60;99.90
45945;DHT22;31655;48.972;10.686;2023-12-29T01:41:29;4.60;99.90
45945;DHT22;31655;48.972;10.686;2023-12-29T01:46:25;4.80;99.90
45945;DHT22;31655;48.972;10.686;2023-12-29T01:48:51;4.90;99.90
45945;DHT22;31655;48.972;10.686;2023-12-29T01:51:17;4.90;99.90
45945;DHT22;31655;48.972;10.686;2023-12-29T01:53:45;5.00;99.90
45945;DHT22;31655;48.972;10.686;2023-12-29T01:56:10;4.90;99.90
45945;DHT22;31655;48.972;10.686;2023-12-29T01:58:36;4.90;99.90
45945;DHT22;31655;48.972;10.686;2023-12-29T02:01:03;4.90;99.90
45945;DHT22;31655;48.972;10.686;2023-12-29T02:03:30;4.80;99.90
45945;DHT22;31655;48.972;10.686;2023-12-29T02:05:56;4.80;99.90
45945;DHT22;31655;48.972;10.686;2023-12-29T02:08:22;4.80;99.90
45945;DHT22;31655;48.972;10.686;2023-12-29T02:10:48;4.80;99.90
45945;DHT22;31655;48.972;10.686;2023-12-29T02:13:14;4.90;99.90
45945;DHT22;31655;48.972;10.686;2023-12-29T02:15:40;5.00;99.90
45945;DHT22;31655;48.972;10.686;2023-12-29T02:18:06;5.10;99.90
45945;DHT22;31655;48.972;10.686;2023-12-29T02:20:33;5.10;99.90
45945;DHT22;31655;48.972;10.686;2023-12-29T02:22:59;5.10;99.90
45945;DHT22;31655;48.972;10.686;2023-12-29T02:25:26;5.10;99.90
45945;DHT22;31655;48.972;10.686;2023-12-29T02:28:08;5.00;99.90
45945;DHT22;31655;48.972;10.686;2023-12-29T02:30:45;4.90;99.90
45945;DHT22;31655;48.972;10.686;2023-12-29T02:33:20;4.80;99.90
45945;DHT22;31655;48.972;10.686;2023-12-29T02:35:48;4.70;99.90
45945;DHT22;31655;48.972;10.686;2023-12-29T02:38:14;6.50;99.90
45945;DHT22;31655;48.972;10.686;2023-12-29T02:40:41;4.60;99.90
45945;DHT22;31655;48.972;10.686;2023-12-29T02:43:08;4.60;99.90
45945;DHT22;31655;48.972;10.686;2023-12-29T02:45:34;4.60;99.90
45945;DHT22;31655;48.972;10.686;2023-12-29T02:47:59;4.60;99.90
45945;DHT22;31655;48.972;10.686;2023-12-29T02:50:25;4.60;99.90
45945;DHT22;31655;48.972;10.686;2023-12-29T02:52:51;4.60;99.90
45945;DHT22;31655;48.972;10.686;2023-12-29T02:55:16;4.60;99.90
45945;DHT22;31655;48.972;10.686;2023-12-29T02:57:42;4.70;99.90
45945;DHT22;31655;48.972;10.686;2023-12-29T03:00:07;4.80;99.90
45945;DHT22;31655;48.972;10.686;2023-12-29T03:02:33;4.80;99.90
45945;DHT22;31655;48.972;10.686;2023-12-29T03:04:59;4.90;99.90
45945;DHT22;31655;48.972;10.686;2023-12-29T03:07:25;4.90;99.90
45945;DHT22;31655;48.972;10.686;2023-12-29T03:09:51;5.10;99.90
45945;DHT22;31655;48.972;10.686;2023-12-29T03:12:16;5.00;99.90
45945;DHT22;31655;48.972;10.686;2023-12-29T03:14:42;5.00;99.90
45945;DHT22;31655;48.972;10.686;2023-12-29T03:17:09;5.00;99.90
45945;DHT22;31655;48.972;10.686;2023-12-29T03:19:35;5.00;99.90
45945;DHT22;31655;48.972;10.686;2023-12-29T03:22:01;5.00;99.90
45945;DHT22;31655;48.972;10.686;2023-12-29T03:24:28;5.00;99.90
45945;DHT22;31655;48.972;10.686;2023-12-29T03:26:53;5.10;99.90
45945;DHT22;31655;48.972;10.686;2023-12-29T03:29:19;5.00;99.90
45945;DHT22;31655;48.972;10.686;2023-12-29T03:31:44;4.90;99.90
45945;DHT22;31655;48.972;10.686;2023-12-29T03:34:10;4.90;99.90
45945;DHT22;31655;48.972;10.686;2023-12-29T03:36:35;4.70;99.90
45945;DHT22;31655;48.972;10.686;2023-12-29T03:39:01;4.70;99.90
45945;DHT22;31655;48.972;10.686;2023-12-29T03:41:28;4.60;99.90
45945;DHT22;31655;48.972;10.686;2023-12-29T03:43:53;4.50;99.90
45945;DHT22;31655;48.972;10.686;2023-12-29T03:46:20;4.50;99.90
45945;DHT22;31655;48.972;10.686;2023-12-29T03:48:47;4.50;99.90
45945;DHT22;31655;48.972;10.686;2023-12-29T03:51:13;3.30;99.90
45945;DHT22;31655;48.972;10.686;2023-12-29T03:53:39;4.50;99.90
45945;DHT22;31655;48.972;10.686;2023-12-29T03:56:06;4.40;99.90
45945;DHT22;31655;48.972;10.686;2023-12-29T03:58:32;4.40;99.90
45945;DHT22;31655;48.972;10.686;2023-12-29T04:00:57;4.30;99.90
45945;DHT22;31655;48.972;10.686;2023-12-29T04:03:23;4.30;99.90
45945;DHT22;31655;48.972;10.686;2023-12-29T04:05:48;4.30;99.90
45945;DHT22;31655;48.972;10.686;2023-12-29T04:08:14;4.30;99.90
45945;DHT22;31655;48.972;10.686;2023-12-29T04:10:39;4.30;99.90
45945;DHT22;31655;48.972;10.686;2023-12-29T04:13:05;4.90;99.90
45945;DHT22;31655;48.972;10.686;2023-12-29T04:15:30;4.20;99.90
45945;DHT22;31655;48.972;10.686;2023-12-29T04:17:56;4.20;99.90
45945;DHT22;31655;48.972;10.686;2023-12-29T04:20:21;7.00;99.90
45945;DHT22;31655;48.972;10.686;2023-12-29T04:22:47;4.40;99.90
45945;DHT22;31655;48.972;10.686;2023-12-29T04:25:13;4.50;99.90
45945;DHT22;31655;48.972;10.686;2023-12-29T04:27:40;4.50;99.90
45945;DHT22;31655;48.972;10.686;2023-12-29T04:30:06;4.70;99.90
45945;DHT22;31655;48.972;10.686;2023-12-29T04:32:31;4.70;99.90
45945;DHT22;31655;48.972;10.686;2023-12-29T04:34:57;4.70;99.90
45945;DHT22;31655;48.972;10.686;2023-12-29T04:42:14;4.80;99.90
45945;DHT22;31655;48.972;10.686;2023-12-29T04:44:40;4.80;99.90
45945;DHT22;31655;48.972;10.686;2023-12-29T04:47:06;4.70;99.90
45945;DHT22;31655;48.972;10.686;2023-12-29T04:49:31;4.80;99.90
45945;DHT22;31655;48.972;10.686;2023-12-29T04:51:57;5.00;99.90
45945;DHT22;31655;48.972;10.686;2023-12-29T04:54:24;4.90;99.90
45945;DHT22;31655;48.972;10.686;2023-12-29T04:56:49;5.00;99.90
45945;DHT22;31655;48.972;10.686;2023-12-29T04:59:16;5.10;99.90
45945;DHT22;31655;48.972;10.686;2023-12-29T05:01:41;5.30;99.90
45945;DHT22;31655;48.972;10.686;2023-12-29T05:04:07;5.40;99.90
45945;DHT22;31655;48.972;10.686;2023-12-29T05:06:32;5.50;99.90
45945;DHT22;31655;48.972;10.686;2023-12-29T05:08:58;5.50;99.90
45945;DHT22;31655;48.972;10.686;2023-12-29T05:11:24;5.50;99.90
45945;DHT22;31655;48.972;10.686;2023-12-29T05:13:49;5.50;99.90
45945;DHT22;31655;48.972;10.686;2023-12-29T05:16:15;5.50;99.90
45945;DHT22;31655;48.972;10.686;2023-12-29T05:18:41;5.50;99.90
45945;DHT22;31655;48.972;10.686;2023-12-29T05:21:14;5.50;99.90
45945;DHT22;31655;48.972;10.686;2023-12-29T05:23:40;5.50;99.90
45945;DHT22;31655;48.972;10.686;2023-12-29T05:28:31;5.40;99.90
45945;DHT22;31655;48.972;10.686;2023-12-29T05:30:57;5.80;99.90
45945;DHT22;31655;48.972;10.686;2023-12-29T05:33:24;5.50;99.90
45945;DHT22;31655;48.972;10.686;2023-12-29T05:35:49;5.50;99.90
45945;DHT22;31655;48.972;10.686;2023-12-29T05:38:15;5.50;99.90
45945;DHT22;31655;48.972;10.686;2023-12-29T05:40:41;5.50;99.90
45945;DHT22;31655;48.972;10.686;2023-12-29T05:43:06;5.50;99.90
45945;DHT22;31655;48.972;10.686;2023-12-29T05:45:32;7.20;99.90
45945;DHT22;31655;48.972;10.686;2023-12-29T05:47:57;5.50;99.90
45945;DHT22;31655;48.972;10.686;2023-12-29T05:50:23;5.50;99.90
45945;DHT22;31655;48.972;10.686;2023-12-29T05:52:48;5.60;99.90
45945;DHT22;31655;48.972;10.686;2023-12-29T05:55:17;5.60;99.90
45945;DHT22;31655;48.972;10.686;2023-12-29T05:57:43;5.50;99.90
45945;DHT22;31655;48.972;10.686;2023-12-29T06:00:11;5.50;99.90
45945;DHT22;31655;48.972;10.686;2023-12-29T06:02:40;5.60;99.90
45945;DHT22;31655;48.972;10.686;2023-12-29T06:05:07;5.60;99.90
45945;DHT22;31655;48.972;10.686;2023-12-29T06:07:33;5.50;99.90
45945;DHT22;31655;48.972;10.686;2023-12-29T06:09:59;5.50;99.90
45945;DHT22;31655;48.972;10.686;2023-12-29T06:12:25;7.40;99.90
45945;DHT22;31655;48.972;10.686;2023-12-29T06:14:50;5.50;99.90
45945;DHT22;31655;48.972;10.686;2023-12-29T06:17:16;5.40;99.90
45945;DHT22;31655;48.972;10.686;2023-12-29T06:19:41;7.70;99.90
45945;DHT22;31655;48.972;10.686;2023-12-29T06:22:07;5.30;99.90
45945;DHT22;31655;48.972;10.686;2023-12-29T06:24:37;7.10;99.90
45945;DHT22;31655;48.972;10.686;2023-12-29T06:27:03;5.30;99.90
45945;DHT22;31655;48.972;10.686;2023-12-29T06:29:28;5.20;99.90
45945;DHT22;31655;48.972;10.686;2023-12-29T06:31:54;5.20;99.90
45945;DHT22;31655;48.972;10.686;2023-12-29T06:34:20;5.20;99.90
45945;DHT22;31655;48.972;10.686;2023-12-29T06:36:45;5.20;99.90
45945;DHT22;31655;48.972;10.686;2023-12-29T06:39:11;5.20;99.90
45945;DHT22;31655;48.972;10.686;2023-12-29T06:41:37;5.20;99.90
45945;DHT22;31655;48.972;10.686;2023-12-29T06:44:02;5.20;99.90
45945;DHT22;31655;48.972;10.686;2023-12-29T06:46:28;5.20;99.90
45945;DHT22;31655;48.972;10.686;2023-12-29T06:48:53;5.20;99.90
45945;DHT22;31655;48.972;10.686;2023-12-29T06:51:19;5.20;99.90
45945;DHT22;31655;48.972;10.686;2023-12-29T06:53:49;5.20;99.90
45945;DHT22;31655;48.972;10.686;2023-12-29T06:56:18;7.30;99.90
45945;DHT22;31655;48.972;10.686;2023-12-29T06:58:44;5.20;99.90
45945;DHT22;31655;48.972;10.686;2023-12-29T07:01:10;5.30;99.90
45945;DHT22;31655;48.972;10.686;2023-12-29T07:03:35;5.30;99.90
45945;DHT22;31655;48.972;10.686;2023-12-29T07:06:01;5.30;99.90
45945;DHT22;31655;48.972;10.686;2023-12-29T07:10:53;5.40;99.90
45945;DHT22;31655;48.972;10.686;2023-12-29T07:13:19;5.30;99.90
45945;DHT22;31655;48.972;10.686;2023-12-29T07:15:48;5.30;99.90
45945;DHT22;31655;48.972;10.686;2023-12-29T07:18:14;5.40;99.90
45945;DHT22;31655;48.972;10.686;2023-12-29T07:20:40;7.70;99.90
45945;DHT22;31655;48.972;10.686;2023-12-29T07:23:06;5.40;99.90
45945;DHT22;31655;48.972;10.686;2023-12-29T07:25:31;5.50;99.90
45945;DHT22;31655;48.972;10.686;2023-12-29T07:30:23;5.50;99.90
45945;DHT22;31655;48.972;10.686;2023-12-29T07:32:49;5.40;99.90
45945;DHT22;31655;48.972;10.686;2023-12-29T07:35:14;5.50;99.90
45945;DHT22;31655;48.972;10.686;2023-12-29T07:37:43;5.50;99.90
45945;DHT22;31655;48.972;10.686;2023-12-29T07:40:14;5.60;99.90
45945;DHT22;31655;48.972;10.686;2023-12-29T07:42:40;5.60;99.90
45945;DHT22;31655;48.972;10.686;2023-12-29T07:45:06;5.60;99.90
45945;DHT22;31655;48.972;10.686;2023-12-29T07:47:32;5.70;99.90
45945;DHT22;31655;48.972;10.686;2023-12-29T07:49:57;5.80;99.90
45945;DHT22;31655;48.972;10.686;2023-12-29T07:52:23;5.80;99.90
45945;DHT22;31655;48.972;10.686;2023-12-29T07:54:49;5.90;99.90
45945;DHT22;31655;48.972;10.686;2023-12-29T07:57:14;5.90;99.90
45945;DHT22;31655;48.972;10.686;2023-12-29T07:59:40;5.90;99.90
45945;DHT22;31655;48.972;10.686;2023-12-29T08:02:06;5.90;99.90
45945;DHT22;31655;48.972;10.686;2023-12-29T08:04:32;5.90;99.90
45945;DHT22;31655;48.972;10.686;2023-12-29T08:06:57;5.90;99.90
45945;DHT22;31655;48.972;10.686;2023-12-29T08:09:23;5.90;99.90
45945;DHT22;31655;48.972;10.686;2023-12-29T08:11:49;6.00;99.90
45945;DHT22;31655;48.972;10.686;2023-12-29T08:14:15;6.00;99.90
45945;DHT22;31655;48.972;10.686;2023-12-29T08:16:41;6.10;99.90
45945;DHT22;31655;48.972;10.686;2023-12-29T08:19:06;6.00;99.90
45945;DHT22;31655;48.972;10.686;2023-12-29T08:21:33;6.00;99.90
45945;DHT22;31655;48.972;10.686;2023-12-29T08:23:58;6.10;99.90
45945;DHT22;31655;48.972;10.686;2023-12-29T08:26:24;6.10;99.90
45945;DHT22;31655;48.972;10.686;2023-12-29T08:28:50;6.10;99.90
45945;DHT22;31655;48.972;10.686;2023-12-29T08:31:15;6.20;99.90
45945;DHT22;31655;48.972;10.686;2023-12-29T08:33:44;6.20;99.90
45945;DHT22;31655;48.972;10.686;2023-12-29T08:36:11;6.30;99.90
45945;DHT22;31655;48.972;10.686;2023-12-29T08:38:37;6.40;99.90
45945;DHT22;31655;48.972;10.686;2023-12-29T08:41:02;6.50;99.90
45945;DHT22;31655;48.972;10.686;2023-12-29T08:43:28;6.50;99.90
45945;DHT22;31655;48.972;10.686;2023-12-29T08:45:54;6.60;99.90
45945;DHT22;31655;48.972;10.686;2023-12-29T08:48:19;6.70;99.90
45945;DHT22;31655;48.972;10.686;2023-12-29T08:53:11;6.90;99.90
45945;DHT22;31655;48.972;10.686;2023-12-29T08:55:37;7.00;99.90
45945;DHT22;31655;48.972;10.686;2023-12-29T08:58:03;7.10;99.90
45945;DHT22;31655;48.972;10.686;2023-12-29T09:00:28;7.10;99.90
45945;DHT22;31655;48.972;10.686;2023-12-29T09:02:57;10.20;99.90
45945;DHT22;31655;48.972;10.686;2023-12-29T09:05:23;7.30;99.90
45945;DHT22;31655;48.972;10.686;2023-12-29T09:07:48;7.30;99.90
45945;DHT22;31655;48.972;10.686;2023-12-29T09:10:14;7.30;99.90
45945;DHT22;31655;48.972;10.686;2023-12-29T09:12:40;7.50;99.90
45945;DHT22;31655;48.972;10.686;2023-12-29T09:15:06;7.50;99.90
45945;DHT22;31655;48.972;10.686;2023-12-29T09:17:33;7.50;99.90
45945;DHT22;31655;48.972;10.686;2023-12-29T09:19:58;7.40;99.90
45945;DHT22;31655;48.972;10.686;2023-12-29T09:22:24;7.30;99.90
45945;DHT22;31655;48.972;10.686;2023-12-29T09:24:49;7.20;99.90
45945;DHT22;31655;48.972;10.686;2023-12-29T09:27:15;7.20;99.90
45945;DHT22;31655;48.972;10.686;2023-12-29T09:29:41;7.20;99.90
45945;DHT22;31655;48.972;10.686;2023-12-29T09:32:07;7.10;99.90
45945;DHT22;31655;48.972;10.686;2023-12-29T09:34:32;7.10;99.90
45945;DHT22;31655;48.972;10.686;2023-12-29T09:36:58;7.10;99.90
45945;DHT22;31655;48.972;10.686;2023-12-29T09:39:23;7.10;99.90
45945;DHT22;31655;48.972;10.686;2023-12-29T09:41:51;7.20;99.90
45945;DHT22;31655;48.972;10.686;2023-12-29T09:44:20;7.10;99.90
45945;DHT22;31655;48.972;10.686;2023-12-29T09:46:49;7.20;99.90
45945;DHT22;31655;48.972;10.686;2023-12-29T09:49:16;7.90;99.90
45945;DHT22;31655;48.972;10.686;2023-12-29T09:51:44;7.10;99.90
45945;DHT22;31655;48.972;10.686;2023-12-29T09:54:10;7.10;99.90
45945;DHT22;31655;48.972;10.686;2023-12-29T09:56:37;7.10;99.90
45945;DHT22;31655;48.972;10.686;2023-12-29T09:59:03;7.10;99.90
45945;DHT22;31655;48.972;10.686;2023-12-29T10:01:29;7.10;99.90
45945;DHT22;31655;48.972;10.686;2023-12-29T10:03:56;7.10;99.90
45945;DHT22;31655;48.972;10.686;2023-12-29T10:06:24;7.40;99.90
45945;DHT22;31655;48.972;10.686;2023-12-29T10:08:51;7.40;99.90
45945;DHT22;31655;48.972;10.686;2023-12-29T10:11:20;8.70;99.90
45945;DHT22;31655;48.972;10.686;2023-12-29T10:13:51;7.50;99.90
45945;DHT22;31655;48.972;10.686;2023-12-29T10:22:15;7.70;99.90
45945;DHT22;31655;48.972;10.686;2023-12-29T10:24:44;7.80;99.90
45945;DHT22;31655;48.972;10.686;2023-12-29T10:27:12;7.90;99.90
45945;DHT22;31655;48.972;10.686;2023-12-29T10:29:38;8.00;99.90
45945;DHT22;31655;48.972;10.686;2023-12-29T10:32:03;9.30;99.90
45945;DHT22;31655;48.972;10.686;2023-12-29T10:34:29;8.00;99.90
45945;DHT22;31655;48.972;10.686;2023-12-29T10:36:56;8.00;99.90
45945;DHT22;31655;48.972;10.686;2023-12-29T10:39:22;8.00;99.90
45945;DHT22;31655;48.972;10.686;2023-12-29T10:41:48;8.10;99.90
45945;DHT22;31655;48.972;10.686;2023-12-29T10:44:13;8.00;99.90
45945;DHT22;31655;48.972;10.686;2023-12-29T10:46:39;8.10;99.90
45945;DHT22;31655;48.972;10.686;2023-12-29T10:49:11;8.20;99.90
45945;DHT22;31655;48.972;10.686;2023-12-29T10:51:38;8.20;99.90
45945;DHT22;31655;48.972;10.686;2023-12-29T10:54:04;8.30;99.90
45945;DHT22;31655;48.972;10.686;2023-12-29T10:56:31;8.30;99.90
45945;DHT22;31655;48.972;10.686;2023-12-29T10:59:04;8.40;99.90
45945;DHT22;31655;48.972;10.686;2023-12-29T11:01:34;8.40;99.90
45945;DHT22;31655;48.972;10.686;2023-12-29T11:04:05;8.40;99.90
45945;DHT22;31655;48.972;10.686;2023-12-29T11:06:42;8.50;99.90
45945;DHT22;31655;48.972;10.686;2023-12-29T11:09:10;11.00;99.90
45945;DHT22;31655;48.972;10.686;2023-12-29T11:11:36;8.20;99.90
45945;DHT22;31655;48.972;10.686;2023-12-29T11:14:02;8.20;99.90
45945;DHT22;31655;48.972;10.686;2023-12-29T11:16:29;8.10;99.90
45945;DHT22;31655;48.972;10.686;2023-12-29T11:18:56;8.00;99.90
45945;DHT22;31655;48.972;10.686;2023-12-29T11:21:26;8.00;99.90
45945;DHT22;31655;48.972;10.686;2023-12-29T11:23:51;8.10;99.90
45945;DHT22;31655;48.972;10.686;2023-12-29T11:26:18;8.10;99.90
45945;DHT22;31655;48.972;10.686;2023-12-29T11:28:46;8.10;99.90
45945;DHT22;31655;48.972;10.686;2023-12-29T11:31:15;8.10;99.90
45945;DHT22;31655;48.972;10.686;2023-12-29T11:33:46;8.20;99.90
45945;DHT22;31655;48.972;10.686;2023-12-29T11:36:22;8.10;99.90
45945;DHT22;31655;48.972;10.686;2023-12-29T14:04:34;9.30;99.90
45945;DHT22;31655;48.972;10.686;2023-12-29T14:07:01;9.30;99.90
45945;DHT22;31655;48.972;10.686;2023-12-29T14:09:28;9.30;99.90
45945;DHT22;31655;48.972;10.686;2023-12-29T14:11:53;9.20;99.90
45945;DHT22;31655;48.972;10.686;2023-12-29T14:14:26;9.20;99.90
45945;DHT22;31655;48.972;10.686;2023-12-29T14:16:53;9.20;99.90
45945;DHT22;31655;48.972;10.686;2023-12-29T14:19:18;9.20;99.90
45945;DHT22;31655;48.972;10.686;2023-12-29T14:21:46;9.10;99.90
45945;DHT22;31655;48.972;10.686;2023-12-29T14:24:14;9.10;99.90
45945;DHT22;31655;48.972;10.686;2023-12-29T14:29:18;9.00;99.90
45945;DHT22;31655;48.972;10.686;2023-12-29T14:31:45;9.00;99.90
45945;DHT22;31655;48.972;10.686;2023-12-29T14:34:12;8.90;99.90
45945;DHT22;31655;48.972;10.686;2023-12-29T14:36:40;8.90;99.90
45945;DHT22;31655;48.972;10.686;2023-12-29T14:39:06;8.80;99.90
45945;DHT22;31655;48.972;10.686;2023-12-29T14:41:33;8.90;99.90
45945;DHT22;31655;48.972;10.686;2023-12-29T14:43:59;8.90;99.90
45945;DHT22;31655;48.972;10.686;2023-12-29T14:46:25;8.90;99.90
45945;DHT22;31655;48.972;10.686;2023-12-29T14:48:52;8.80;99.90
45945;DHT22;31655;48.972;10.686;2023-12-29T14:51:18;8.70;99.90
45945;DHT22;31655;48.972;10.686;2023-12-29T14:53:48;8.70;99.90
45945;DHT22;31655;48.972;10.686;2023-12-29T14:56:14;8.70;99.90
45945;DHT22;31655;48.972;10.686;2023-12-29T14:58:40;10.00;99.90
45945;DHT22;31655;48.972;10.686;2023-12-29T15:01:09;8.70;99.90
45945;DHT22;31655;48.972;10.686;2023-12-29T15:03:36;8.70;99.90
45945;DHT22;31655;48.972;10.686;2023-12-29T15:06:02;9.80;99.90
45945;DHT22;31655;48.972;10.686;2023-12-29T15:08:28;8.50;99.90
45945;DHT22;31655;48.972;10.686;2023-12-29T15:11:03;8.50;99.90
45945;DHT22;31655;48.972;10.686;2023-12-29T15:13:29;8.50;99.90
45945;DHT22;31655;48.972;10.686;2023-12-29T15:15:56;8.60;99.90
45945;DHT22;31655;48.972;10.686;2023-12-29T15:18:22;8.50;99.90
45945;DHT22;31655;48.972;10.686;2023-12-29T15:20:48;8.40;99.90
45945;DHT22;31655;48.972;10.686;2023-12-29T15:23:14;8.40;99.90
45945;DHT22;31655;48.972;10.686;2023-12-29T15:25:39;8.30;99.90
45945;DHT22;31655;48.972;10.686;2023-12-29T15:28:07;8.30;99.90
45945;DHT22;31655;48.972;10.686;2023-12-29T15:30:33;8.20;99.90
45945;DHT22;31655;48.972;10.686;2023-12-29T15:32:58;8.20;99.90
45945;DHT22;31655;48.972;10.686;2023-12-29T15:35:24;8.90;99.90
45945;DHT22;31655;48.972;10.686;2023-12-29T15:37:50;8.20;99.90
45945;DHT22;31655;48.972;10.686;2023-12-29T15:40:15;8.20;99.90
45945;DHT22;31655;48.972;10.686;2023-12-29T15:42:41;9.50;99.90
45945;DHT22;31655;48.972;10.686;2023-12-29T15:45:07;8.10;99.90
45945;DHT22;31655;48.972;10.686;2023-12-29T15:47:32;8.10;99.90
45945;DHT22;31655;48.972;10.686;2023-12-29T15:49:58;9.00;99.90
45945;DHT22;31655;48.972;10.686;2023-12-29T15:52:23;8.10;99.90
45945;DHT22;31655;48.972;10.686;2023-12-29T15:57:17;8.10;99.90
45945;DHT22;31655;48.972;10.686;2023-12-29T15:59:43;8.10;99.90
45945;DHT22;31655;48.972;10.686;2023-12-29T16:02:10;8.10;99.90
45945;DHT22;31655;48.972;10.686;2023-12-29T16:09:28;8.20;99.90
45945;DHT22;31655;48.972;10.686;2023-12-29T16:11:54;8.10;99.90
45945;DHT22;31655;48.972;10.686;2023-12-29T16:14:20;8.20;99.90
45945;DHT22;31655;48.972;10.686;2023-12-29T16:16:49;8.20;99.90
45945;DHT22;31655;48.972;10.686;2023-12-29T16:19:14;8.20;99.90
45945;DHT22;31655;48.972;10.686;2023-12-29T16:21:40;8.20;99.90
45945;DHT22;31655;48.972;10.686;2023-12-29T16:24:09;8.20;99.90
45945;DHT22;31655;48.972;10.686;2023-12-29T16:26:35;8.20;99.90
45945;DHT22;31655;48.972;10.686;2023-12-29T16:29:02;10.30;99.90
45945;DHT22;31655;48.972;10.686;2023-12-29T16:31:29;8.10;99.90
45945;DHT22;31655;48.972;10.686;2023-12-29T16:33:55;8.10;99.90
45945;DHT22;31655;48.972;10.686;2023-12-29T16:36:20;7.90;99.90
45945;DHT22;31655;48.972;10.686;2023-12-29T16:38:50;7.90;99.90
45945;DHT22;31655;48.972;10.686;2023-12-29T16:41:19;7.90;99.90
45945;DHT22;31655;48.972;10.686;2023-12-29T16:43:45;7.90;99.90
45945;DHT22;31655;48.972;10.686;2023-12-29T16:46:10;7.80;99.90
45945;DHT22;31655;48.972;10.686;2023-12-29T16:48:36;7.70;99.90
45945;DHT22;31655;48.972;10.686;2023-12-29T16:51:02;7.60;99.90
45945;DHT22;31655;48.972;10.686;2023-12-29T16:53:28;7.50;99.90
45945;DHT22;31655;48.972;10.686;2023-12-29T16:55:54;7.40;99.90
45945;DHT22;31655;48.972;10.686;2023-12-29T16:58:20;7.30;99.90
45945;DHT22;31655;48.972;10.686;2023-12-29T17:00:49;7.20;99.90
45945;DHT22;31655;48.972;10.686;2023-12-29T17:03:18;7.10;99.90
45945;DHT22;31655;48.972;10.686;2023-12-29T17:05:44;7.10;99.90
45945;DHT22;31655;48.972;10.686;2023-12-29T17:08:09;7.00;99.90
45945;DHT22;31655;48.972;10.686;2023-12-29T17:10:35;7.00;99.90
45945;DHT22;31655;48.972;10.686;2023-12-29T17:13:01;6.90;99.90
45945;DHT22;31655;48.972;10.686;2023-12-29T17:15:26;6.80;99.90
45945;DHT22;31655;48.972;10.686;2023-12-29T17:17:52;6.80;99.90
45945;DHT22;31655;48.972;10.686;2023-12-29T17:20:19;6.80;99.90
45945;DHT22;31655;48.972;10.686;2023-12-29T17:25:10;6.80;99.90
45945;DHT22;31655;48.972;10.686;2023-12-29T17:27:40;6.80;99.90
45945;DHT22;31655;48.972;10.686;2023-12-29T17:30:06;6.80;99.90
45945;DHT22;31655;48.972;10.686;2023-12-29T17:34:58;7.00;99.90
45945;DHT22;31655;48.972;10.686;2023-12-29T17:37:23;7.00;99.90
45945;DHT22;31655;48.972;10.686;2023-12-29T17:39:52;7.00;99.90
45945;DHT22;31655;48.972;10.686;2023-12-29T17:42:18;7.00;99.90
45945;DHT22;31655;48.972;10.686;2023-12-29T17:44:43;9.30;99.90
45945;DHT22;31655;48.972;10.686;2023-12-29T17:47:09;7.30;99.90
45945;DHT22;31655;48.972;10.686;2023-12-29T17:49:34;6.90;99.90
45945;DHT22;31655;48.972;10.686;2023-12-29T17:52:01;6.80;99.90
45945;DHT22;31655;48.972;10.686;2023-12-29T17:54:27;6.70;99.90
45945;DHT22;31655;48.972;10.686;2023-12-29T17:56:53;6.60;99.90
45945;DHT22;31655;48.972;10.686;2023-12-29T17:59:19;6.60;99.90
45945;DHT22;31655;48.972;10.686;2023-12-29T18:01:50;6.60;99.90
45945;DHT22;31655;48.972;10.686;2023-12-29T18:04:21;6.60;99.90
45945;DHT22;31655;48.972;10.686;2023-12-29T18:06:46;6.60;99.90
45945;DHT22;31655;48.972;10.686;2023-12-29T18:09:12;6.60;99.90
45945;DHT22;31655;48.972;10.686;2023-12-29T18:11:39;6.50;99.90
45945;DHT22;31655;48.972;10.686;2023-12-29T18:14:04;6.50;99.90
45945;DHT22;31655;48.972;10.686;2023-12-29T18:16:31;6.50;99.90
45945;DHT22;31655;48.972;10.686;2023-12-29T18:19:02;6.50;99.90
45945;DHT22;31655;48.972;10.686;2023-12-29T18:21:27;6.50;99.90
45945;DHT22;31655;48.972;10.686;2023-12-29T18:23:54;6.50;99.90
45945;DHT22;31655;48.972;10.686;2023-12-29T18:26:19;7.70;99.90
45945;DHT22;31655;48.972;10.686;2023-12-29T18:28:45;6.50;99.90